Time;durP1;ratioP1;P1;durP2;ratioP2;P2;SDS_P1;SDS_P2;PMS_P1;PMS_P2;Temp;Humidity;BMP_temperature;BMP_pressure;BME280_temperature;BME280_humidity;BME280_pressure;Samples;Min_cycle;Max_cycle;Signal;HPM_P1;HPM_P2
2023/06/23 00:00:52;;;;;;;11.50;6.75;;;17.50;99.90;;;;;;5115051;28;20510;-84
2023/06/23 00:03:19;;;;;;;13.55;6.57;;;17.50;99.90;;;;;;5115043;28;20039;-83
2023/06/23 00:05:46;;;;;;;10.32;6.20;;;17.50;99.90;;;;;;5114471;28;20043;-83
2023/06/23 00:08:12;;;;;;;9.60;5.80;;;17.50;99.90;;;;;;5116106;28;20099;-83
2023/06/23 00:10:39;;;;;;;11.63;5.75;;;17.50;99.90;;;;;;5097905;28;20046;-83
2023/06/23 00:13:06;;;;;;;13.52;5.78;;;17.50;99.90;;;;;;5098042;28;20126;-83
2023/06/23 00:15:33;;;;;;;10.05;5.82;;;17.40;99.90;;;;;;5097845;28;20051;-83
2023/06/23 00:18:00;;;;;;;9.15;5.32;;;17.40;99.90;;;;;;5114133;28;20073;-83
2023/06/23 00:20:26;;;;;;;9.32;5.20;;;17.30;99.90;;;;;;5114584;28;20041;-83
2023/06/23 00:22:54;;;;;;;10.05;5.38;;;17.30;99.90;;;;;;5114255;28;20032;-84
2023/06/23 00:25:21;;;;;;;9.55;4.75;;;17.40;99.90;;;;;;5114483;28;20032;-83
2023/06/23 00:27:48;;;;;;;10.75;5.68;;;17.30;99.90;;;;;;5114724;28;20042;-82
2023/06/23 00:30:15;;;;;;;11.80;5.35;;;17.30;99.90;;;;;;5113948;28;20047;-82
2023/06/23 00:32:43;;;;;;;11.98;4.85;;;17.30;99.90;;;;;;5113985;28;20468;-83
2023/06/23 00:35:10;;;;;;;11.15;5.63;;;17.30;99.90;;;;;;5130630;28;20131;-83
2023/06/23 00:37:37;;;;;;;12.45;7.53;;;17.30;99.90;;;;;;5096377;28;20130;-83
2023/06/23 00:40:07;;;;;;;16.98;9.10;;;17.30;99.90;;;;;;5097584;28;20046;-83
2023/06/23 00:42:52;;;;;;;23.45;14.63;;;17.20;99.90;;;;;;5114156;28;20036;-83
2023/06/23 00:45:20;;;;;;;22.00;16.98;;;17.20;99.90;;;;;;5113977;28;20035;-83
2023/06/23 00:47:47;;;;;;;23.55;15.43;;;17.20;99.90;;;;;;5130721;28;20044;-83
2023/06/23 00:50:20;;;;;;;20.33;13.05;;;17.20;99.90;;;;;;5141510;27;20045;-83
2023/06/23 00:52:51;;;;;;;14.43;10.70;;;17.20;99.90;;;;;;5151435;27;20086;-82
2023/06/23 00:55:20;;;;;;;14.50;10.27;;;17.10;99.90;;;;;;5152022;27;20043;-83
2023/06/23 00:57:48;;;;;;;15.95;10.48;;;17.10;99.90;;;;;;5145522;27;20031;-83
2023/06/23 01:00:18;;;;;;;15.50;10.18;;;17.20;99.90;;;;;;5133114;28;20082;-83
2023/06/23 01:02:53;;;;;;;16.42;9.95;;;17.10;99.90;;;;;;5130924;28;20042;-83
2023/06/23 01:05:41;;;;;;;13.70;10.00;;;17.10;99.90;;;;;;5113666;28;20040;-83
2023/06/23 01:08:36;;;;;;;13.68;9.98;;;17.00;99.90;;;;;;5146253;28;20051;-83
2023/06/23 01:11:13;;;;;;;10.38;6.05;;;17.20;99.90;;;;;;5130707;28;20091;-83
2023/06/23 01:14:18;;;;;;;8.07;5.00;;;17.10;99.90;;;;;;5147244;28;20032;-83
2023/06/23 01:16:58;;;;;;;10.52;4.80;;;17.10;99.90;;;;;;5099678;28;20135;-83
2023/06/23 01:19:37;;;;;;;11.18;6.63;;;17.10;99.90;;;;;;5129830;28;20071;-83
2023/06/23 01:22:10;;;;;;;15.27;10.43;;;17.10;99.90;;;;;;5147333;27;20111;-83
2023/06/23 01:24:48;;;;;;;14.85;9.40;;;17.10;99.90;;;;;;5146921;28;20028;-83
2023/06/23 01:27:26;;;;;;;9.55;6.63;;;17.10;99.90;;;;;;5146964;28;20501;-83
2023/06/23 01:29:54;;;;;;;11.05;5.35;;;17.00;99.90;;;;;;5130026;28;20054;-82
2023/06/23 01:32:27;;;;;;;9.50;4.38;;;17.00;99.90;;;;;;5130319;27;20043;-83
2023/06/23 01:35:02;;;;;;;9.43;4.47;;;17.00;99.90;;;;;;5150410;28;20084;-83
2023/06/23 01:37:35;;;;;;;10.57;4.90;;;17.00;99.90;;;;;;5150508;28;20058;-83
2023/06/23 01:40:09;;;;;;;10.57;4.70;;;17.00;99.90;;;;;;5150217;28;20046;-84
2023/06/23 01:42:40;;;;;;;8.68;4.05;;;17.00;99.90;;;;;;5134042;28;20059;-83
2023/06/23 01:45:09;;;;;;;10.65;5.25;;;17.00;99.90;;;;;;5130130;28;20096;-83
2023/06/23 01:47:40;;;;;;;10.35;5.28;;;17.00;99.90;;;;;;5113429;28;20044;-83
2023/06/23 01:50:11;;;;;;;9.88;6.20;;;17.10;99.90;;;;;;5129614;28;20051;-84
2023/06/23 01:52:39;;;;;;;18.02;9.95;;;17.10;99.90;;;;;;5122450;28;20051;-83
2023/06/23 01:55:07;;;;;;;17.88;11.52;;;17.10;99.90;;;;;;5112879;28;20048;-84
2023/06/23 01:57:36;;;;;;;18.52;10.88;;;17.10;99.90;;;;;;5112951;28;20511;-83
2023/06/23 02:00:13;;;;;;;15.95;8.05;;;17.10;99.90;;;;;;5113060;28;20539;-83
2023/06/23 02:02:45;;;;;;;8.38;5.47;;;17.10;99.90;;;;;;5139910;28;20487;-83
2023/06/23 02:05:14;;;;;;;11.85;6.45;;;17.10;99.90;;;;;;5162898;27;20042;-83
2023/06/23 02:07:45;;;;;;;9.35;4.68;;;17.10;99.90;;;;;;5133594;28;20039;-83
2023/06/23 02:10:12;;;;;;;6.30;4.05;;;17.10;99.90;;;;;;5149936;28;20035;-83
2023/06/23 02:12:43;;;;;;;9.70;4.10;;;17.10;99.90;;;;;;5129301;28;20035;-84
2023/06/23 02:15:12;;;;;;;11.05;4.57;;;17.10;99.90;;;;;;5129447;28;20047;-84
2023/06/23 02:17:41;;;;;;;7.50;4.05;;;17.10;99.90;;;;;;5162862;27;20475;-83
2023/06/23 02:20:16;;;;;;;11.35;4.50;;;17.10;99.90;;;;;;5153887;27;20076;-84
2023/06/23 02:22:48;;;;;;;8.18;4.03;;;17.10;99.90;;;;;;5128806;28;20036;-83
2023/06/23 02:25:16;;;;;;;8.10;4.30;;;17.10;99.90;;;;;;5145730;27;20029;-84
2023/06/23 02:27:44;;;;;;;7.57;3.60;;;17.10;99.90;;;;;;5136873;27;20039;-84
2023/06/23 02:30:13;;;;;;;10.32;4.22;;;17.10;99.90;;;;;;5169801;27;20559;-84
2023/06/23 02:32:40;;;;;;;9.15;4.10;;;17.10;99.90;;;;;;5125358;28;20043;-84
2023/06/23 02:35:13;;;;;;;10.00;3.90;;;17.10;99.90;;;;;;5145855;28;20067;-84
2023/06/23 02:37:45;;;;;;;10.23;4.10;;;17.10;99.90;;;;;;5145729;28;20130;-84
2023/06/23 02:40:16;;;;;;;9.23;3.70;;;17.20;99.90;;;;;;5146108;28;20048;-84
2023/06/23 02:43:10;;;;;;;7.93;3.90;;;17.20;99.90;;;;;;5146155;28;20483;-84
2023/06/23 02:45:43;;;;;;;10.45;4.20;;;17.20;99.90;;;;;;5152524;27;20034;-84
2023/06/23 02:48:16;;;;;;;11.20;4.97;;;17.20;99.90;;;;;;5165250;27;20039;-83
2023/06/23 02:50:45;;;;;;;10.80;4.30;;;17.20;99.90;;;;;;5151210;27;20437;-84
2023/06/23 02:53:19;;;;;;;7.32;4.47;;;17.20;99.90;;;;;;5144490;28;20063;-84
2023/06/23 02:55:49;;;;;;;8.27;4.30;;;17.30;99.90;;;;;;5149623;28;20137;-84
2023/06/23 02:58:18;;;;;;;7.97;4.00;;;17.30;99.90;;;;;;5158677;27;20039;-84
2023/06/23 03:00:46;;;;;;;6.70;3.80;;;17.30;99.90;;;;;;5158263;27;20058;-84
2023/06/23 03:03:16;;;;;;;9.18;4.22;;;17.30;99.90;;;;;;5139871;27;20037;-84
2023/06/23 03:05:43;;;;;;;7.82;4.05;;;17.30;99.90;;;;;;5133493;27;20118;-84
2023/06/23 03:08:10;;;;;;;7.18;3.80;;;17.30;99.90;;;;;;5162977;27;20487;-83
2023/06/23 03:10:37;;;;;;;13.10;3.95;;;17.30;99.90;;;;;;5136942;27;20049;-83
2023/06/23 03:13:04;;;;;;;9.60;3.90;;;17.30;99.90;;;;;;5156955;27;20038;-84
2023/06/23 03:15:31;;;;;;;7.85;3.60;;;17.30;99.90;;;;;;5156526;27;20043;-84
2023/06/23 03:18:12;;;;;;;8.40;3.88;;;17.30;99.90;;;;;;5139802;27;20039;-83
2023/06/23 03:20:50;;;;;;;12.27;3.80;;;17.30;99.90;;;;;;5191117;27;20171;-84
2023/06/23 03:23:18;;;;;;;7.93;3.60;;;17.30;99.90;;;;;;5173454;27;20083;-84
2023/06/23 03:25:46;;;;;;;11.27;3.75;;;17.30;99.90;;;;;;5138477;28;20086;-83
2023/06/23 03:28:21;;;;;;;8.43;3.72;;;17.30;99.90;;;;;;5131709;28;20036;-83
2023/06/23 03:30:51;;;;;;;10.55;4.18;;;17.20;99.90;;;;;;5153433;27;20039;-84
2023/06/23 03:33:22;;;;;;;8.55;2.95;;;17.30;99.90;;;;;;5189706;27;20190;-84
2023/06/23 03:35:50;;;;;;;9.20;3.92;;;17.30;99.90;;;;;;5159220;27;20487;-83
2023/06/23 03:38:19;;;;;;;9.57;3.83;;;17.30;99.90;;;;;;5131643;28;20055;-84
2023/06/23 03:41:00;;;;;;;7.25;3.72;;;17.30;99.90;;;;;;5131782;28;20147;-84
2023/06/23 03:43:32;;;;;;;7.22;3.60;;;17.30;99.90;;;;;;5131753;28;20051;-84
2023/06/23 03:46:04;;;;;;;6.45;3.58;;;17.30;99.90;;;;;;5131924;28;20487;-84
2023/06/23 03:48:34;;;;;;;13.93;4.05;;;17.20;99.90;;;;;;5131786;28;20093;-84
2023/06/23 03:51:03;;;;;;;7.20;3.80;;;17.20;99.90;;;;;;5115410;28;20043;-84
2023/06/23 03:53:32;;;;;;;8.77;3.70;;;17.20;99.90;;;;;;5148116;28;20035;-84
2023/06/23 03:56:00;;;;;;;8.57;3.55;;;17.20;99.90;;;;;;5157186;27;20049;-84
2023/06/23 03:58:28;;;;;;;14.05;4.78;;;17.20;99.90;;;;;;5147900;28;20040;-84
2023/06/23 04:00:56;;;;;;;11.27;4.22;;;17.20;99.90;;;;;;5114830;28;20032;-84
2023/06/23 04:03:23;;;;;;;7.68;3.50;;;17.20;99.90;;;;;;5098080;28;20395;-84
2023/06/23 04:05:54;;;;;;;11.95;4.35;;;17.20;99.90;;;;;;5098268;28;20086;-83
2023/06/23 04:08:22;;;;;;;7.78;3.70;;;17.20;99.90;;;;;;5149982;27;20103;-83
2023/06/23 04:10:52;;;;;;;9.35;4.30;;;17.20;99.90;;;;;;5134525;27;20078;-83
2023/06/23 04:13:20;;;;;;;8.95;3.75;;;17.20;99.90;;;;;;5152076;27;20038;-84
2023/06/23 04:15:48;;;;;;;7.90;3.83;;;17.20;99.90;;;;;;5134751;27;20511;-83
2023/06/23 04:18:16;;;;;;;10.80;3.80;;;17.10;99.90;;;;;;5134744;27;20031;-84
2023/06/23 04:20:45;;;;;;;7.82;3.85;;;17.20;99.90;;;;;;5134587;27;20403;-84
2023/06/23 04:23:13;;;;;;;8.73;4.32;;;17.10;99.90;;;;;;5151676;27;20046;-84
2023/06/23 04:25:40;;;;;;;14.48;4.43;;;17.10;99.90;;;;;;5151595;27;20035;-84
2023/06/23 04:28:11;;;;;;;9.15;3.83;;;17.10;99.90;;;;;;5151376;27;20077;-83
2023/06/23 04:30:39;;;;;;;8.48;4.22;;;17.10;99.90;;;;;;5151154;27;20101;-84
2023/06/23 04:33:06;;;;;;;12.48;4.50;;;17.10;99.90;;;;;;5152029;27;20046;-84
2023/06/23 04:35:33;;;;;;;10.90;4.35;;;17.20;99.90;;;;;;5117232;27;20039;-84
2023/06/23 04:38:15;;;;;;;9.40;4.10;;;17.20;99.90;;;;;;5117521;28;20449;-84
2023/06/23 04:40:51;;;;;;;10.18;4.45;;;17.30;99.90;;;;;;5176903;27;20042;-84
2023/06/23 04:43:33;;;;;;;11.65;4.82;;;17.30;99.90;;;;;;5149510;27;20065;-83
2023/06/23 04:46:07;;;;;;;13.95;5.00;;;17.30;99.90;;;;;;5130861;28;20031;-84
2023/06/23 04:48:41;;;;;;;10.38;4.13;;;17.40;99.90;;;;;;5130940;28;20507;-84
2023/06/23 04:51:09;;;;;;;8.07;4.43;;;17.30;99.90;;;;;;5131183;28;20071;-84
2023/06/23 04:53:45;;;;;;;9.75;4.43;;;17.30;99.90;;;;;;5113528;28;20304;-84
2023/06/23 04:56:16;;;;;;;12.38;4.88;;;17.40;99.90;;;;;;5130243;28;20067;-84
2023/06/23 04:58:45;;;;;;;6.95;3.83;;;17.30;99.90;;;;;;5145346;27;20030;-84
2023/06/23 05:01:13;;;;;;;11.02;4.88;;;17.30;99.90;;;;;;5166920;27;20737;-84
2023/06/23 05:03:41;;;;;;;14.05;4.65;;;17.30;99.90;;;;;;5147614;27;20035;-84
2023/06/23 05:06:10;;;;;;;10.77;4.75;;;17.30;99.90;;;;;;5158178;27;20041;-84
2023/06/23 05:08:39;;;;;;;11.73;4.22;;;17.30;99.90;;;;;;5154285;27;20046;-84
2023/06/23 05:11:08;;;;;;;9.02;4.40;;;17.30;99.90;;;;;;5150618;27;20050;-84
2023/06/23 05:13:37;;;;;;;11.27;4.38;;;17.30;99.90;;;;;;5134128;27;20126;-84
2023/06/23 05:16:10;;;;;;;13.65;4.93;;;17.30;99.90;;;;;;5150549;27;20038;-84
2023/06/23 05:18:38;;;;;;;9.32;4.10;;;17.30;99.90;;;;;;5133949;27;20479;-84
2023/06/23 05:21:06;;;;;;;9.00;4.43;;;17.30;99.90;;;;;;5133781;27;20139;-84
2023/06/23 05:23:39;;;;;;;15.10;4.93;;;17.30;99.90;;;;;;5107379;28;20035;-84
2023/06/23 05:26:08;;;;;;;14.00;4.38;;;17.40;99.90;;;;;;5116647;28;20046;-84
2023/06/23 05:28:38;;;;;;;8.85;4.88;;;17.30;99.90;;;;;;5138741;28;20110;-84
2023/06/23 05:31:06;;;;;;;9.00;4.43;;;17.40;99.90;;;;;;5128751;28;20054;-83
2023/06/23 05:33:36;;;;;;;10.25;4.85;;;17.40;99.90;;;;;;5146505;27;20031;-84
2023/06/23 05:36:07;;;;;;;9.95;4.55;;;17.50;99.90;;;;;;5131684;28;20044;-84
2023/06/23 05:38:36;;;;;;;9.15;5.22;;;17.50;99.90;;;;;;5136088;28;20050;-83
2023/06/23 05:41:03;;;;;;;10.70;5.15;;;17.50;99.90;;;;;;5129854;28;20069;-83
2023/06/23 05:43:30;;;;;;;9.32;4.85;;;17.60;99.90;;;;;;5113110;28;20445;-84
2023/06/23 05:45:58;;;;;;;11.07;4.25;;;17.60;99.90;;;;;;5139483;28;20038;-84
2023/06/23 05:48:46;;;;;;;8.57;5.03;;;17.70;99.90;;;;;;5133306;28;20551;-84
2023/06/23 05:51:17;;;;;;;10.75;4.65;;;17.70;99.90;;;;;;5167601;28;20411;-84
2023/06/23 05:53:45;;;;;;;10.70;5.50;;;17.80;99.90;;;;;;5150569;28;20034;-84
2023/06/23 05:56:28;;;;;;;8.32;5.15;;;17.80;99.90;;;;;;5136751;28;20039;-84
2023/06/23 05:58:57;;;;;;;9.90;5.90;;;17.80;99.90;;;;;;5146414;28;20042;-84
2023/06/23 06:01:25;;;;;;;12.18;6.03;;;17.90;99.90;;;;;;5130001;28;20051;-84
2023/06/23 06:04:07;;;;;;;11.52;5.82;;;17.90;99.90;;;;;;5146325;28;20036;-84
2023/06/23 06:06:36;;;;;;;10.80;5.40;;;17.90;99.90;;;;;;5139843;28;20109;-84
2023/06/23 06:09:09;;;;;;;12.65;5.78;;;17.90;99.90;;;;;;5124203;28;20506;-84
2023/06/23 06:11:38;;;;;;;14.60;5.82;;;18.00;99.90;;;;;;5147123;28;20518;-84
2023/06/23 06:14:07;;;;;;;10.63;5.20;;;18.00;99.90;;;;;;5150112;28;20043;-84
2023/06/23 06:16:37;;;;;;;12.32;5.40;;;18.00;99.90;;;;;;5116876;28;20072;-83
2023/06/23 06:19:05;;;;;;;12.63;5.60;;;18.00;99.90;;;;;;5149976;28;20035;-83
2023/06/23 06:21:34;;;;;;;9.40;5.00;;;18.00;99.90;;;;;;5149916;28;20162;-83
2023/06/23 06:24:03;;;;;;;12.93;5.82;;;18.00;99.90;;;;;;5146213;28;20042;-83
2023/06/23 06:26:30;;;;;;;13.65;6.30;;;18.00;99.90;;;;;;5138072;28;20032;-83
2023/06/23 06:28:58;;;;;;;12.55;6.63;;;18.00;99.90;;;;;;5110920;28;20042;-83
2023/06/23 06:31:28;;;;;;;10.98;5.65;;;18.10;99.90;;;;;;5128358;28;20039;-83
2023/06/23 06:33:56;;;;;;;12.50;6.20;;;18.10;99.90;;;;;;5138105;28;20031;-83
2023/06/23 06:36:25;;;;;;;12.35;6.63;;;18.00;99.90;;;;;;5111245;27;20055;-83
2023/06/23 06:38:52;;;;;;;10.75;6.65;;;18.00;99.90;;;;;;5113149;27;20402;-83
2023/06/23 06:41:22;;;;;;;16.50;6.82;;;18.10;99.90;;;;;;5145042;27;20031;-83
2023/06/23 06:43:49;;;;;;;10.52;6.32;;;18.00;99.90;;;;;;5122794;28;20383;-83
2023/06/23 06:46:17;;;;;;;12.45;6.45;;;18.00;99.90;;;;;;5144287;28;20047;-82
2023/06/23 06:48:47;;;;;;;9.65;6.22;;;18.00;99.90;;;;;;5108328;27;20035;-82
2023/06/23 06:51:17;;;;;;;11.32;6.18;;;18.00;99.90;;;;;;5159510;27;20036;-82
2023/06/23 06:53:45;;;;;;;10.18;5.60;;;18.10;99.90;;;;;;5145903;27;20368;-82
2023/06/23 06:56:14;;;;;;;10.93;6.30;;;18.10;99.90;;;;;;5130261;28;20123;-82
2023/06/23 06:58:41;;;;;;;8.25;4.93;;;18.20;99.90;;;;;;5142295;27;20479;-82
2023/06/23 07:01:09;;;;;;;7.85;5.72;;;18.40;99.90;;;;;;5153002;27;20500;-83
2023/06/23 07:03:39;;;;;;;10.93;5.28;;;18.40;99.90;;;;;;5109447;28;20039;-82
2023/06/23 07:06:06;;;;;;;10.70;5.30;;;18.50;99.90;;;;;;5116642;28;20035;-83
2023/06/23 07:08:33;;;;;;;10.02;4.85;;;18.60;99.90;;;;;;5115984;28;20040;-84
2023/06/23 07:11:00;;;;;;;11.50;5.22;;;18.80;99.90;;;;;;5118760;27;20039;-86
2023/06/23 07:13:26;;;;;;;9.38;4.35;;;18.90;99.90;;;;;;5119531;27;20043;-85
2023/06/23 07:15:53;;;;;;;10.48;5.60;;;19.10;99.90;;;;;;5136098;27;20058;-86
2023/06/23 07:18:20;;;;;;;11.50;5.53;;;19.10;99.90;;;;;;5132381;28;20177;-85
2023/06/23 07:20:47;;;;;;;11.27;4.90;;;19.30;99.90;;;;;;5137535;27;20039;-86
2023/06/23 07:23:13;;;;;;;10.23;4.40;;;19.40;99.90;;;;;;5156694;27;20045;-85
2023/06/23 07:25:40;;;;;;;11.52;5.00;;;19.50;99.90;;;;;;5140208;27;20049;-84
2023/06/23 07:28:07;;;;;;;7.10;4.60;;;19.50;99.90;;;;;;5139691;27;20034;-84
2023/06/23 07:30:33;;;;;;;9.88;3.92;;;19.60;99.90;;;;;;5117506;27;20066;-82
2023/06/23 07:33:00;;;;;;;8.25;4.30;;;19.70;99.90;;;;;;5114640;27;20035;-83
2023/06/23 07:35:27;;;;;;;8.45;4.15;;;19.70;99.90;;;;;;5118502;27;20127;-83
2023/06/23 07:37:53;;;;;;;8.27;3.97;;;19.80;99.90;;;;;;5135207;27;20427;-83
2023/06/23 07:40:20;;;;;;;13.23;3.90;;;19.80;99.90;;;;;;5135531;27;20088;-83
2023/06/23 07:42:47;;;;;;;10.05;4.15;;;19.90;99.90;;;;;;5135602;27;20035;-83
2023/06/23 07:45:14;;;;;;;8.07;3.95;;;19.90;99.90;;;;;;5118274;27;20110;-83
2023/06/23 07:47:40;;;;;;;6.85;4.25;;;19.90;99.90;;;;;;5135356;27;20045;-83
2023/06/23 07:50:07;;;;;;;8.05;4.10;;;20.00;99.90;;;;;;5135373;27;20039;-83
2023/06/23 07:52:34;;;;;;;6.93;3.45;;;19.90;99.90;;;;;;5119103;27;20043;-83
2023/06/23 07:55:01;;;;;;;8.40;3.90;;;20.10;99.90;;;;;;5118419;27;20411;-83
2023/06/23 07:57:28;;;;;;;6.32;3.50;;;20.10;99.90;;;;;;5135369;27;20037;-83
2023/06/23 07:59:54;;;;;;;10.27;4.07;;;20.10;99.90;;;;;;5114433;28;20078;-84
2023/06/23 08:02:21;;;;;;;5.60;3.25;;;20.20;99.90;;;;;;5131251;28;20036;-83
2023/06/23 08:04:51;;;;;;;6.97;3.30;;;20.20;99.90;;;;;;5114782;28;20039;-83
2023/06/23 08:07:17;;;;;;;8.98;3.42;;;20.20;99.90;;;;;;5131162;28;20169;-83
2023/06/23 08:09:44;;;;;;;8.55;4.05;;;20.30;99.90;;;;;;5118818;28;20512;-83
2023/06/23 08:12:11;;;;;;;6.03;3.78;;;20.40;99.90;;;;;;5098521;28;20126;-83
2023/06/23 08:14:38;;;;;;;7.43;3.70;;;20.50;99.90;;;;;;5137439;28;20043;-83
2023/06/23 08:17:05;;;;;;;7.88;3.40;;;20.50;99.90;;;;;;5118245;28;20123;-83
2023/06/23 08:19:35;;;;;;;8.25;4.10;;;20.60;99.90;;;;;;5109090;28;20061;-83
2023/06/23 08:22:03;;;;;;;7.90;3.53;;;20.70;99.90;;;;;;5117714;27;20042;-83
2023/06/23 08:24:29;;;;;;;7.13;3.80;;;20.80;99.90;;;;;;5101342;27;20110;-83
2023/06/23 08:26:56;;;;;;;5.95;3.55;;;20.90;99.90;;;;;;5115782;27;20126;-84
2023/06/23 08:29:23;;;;;;;7.00;3.38;;;21.00;99.90;;;;;;5134787;27;20559;-83
2023/06/23 08:31:49;;;;;;;6.22;3.50;;;21.10;99.90;;;;;;5134477;27;20054;-82
2023/06/23 08:34:18;;;;;;;6.88;3.53;;;21.20;99.90;;;;;;5134238;27;20042;-83
2023/06/23 08:36:45;;;;;;;6.63;3.53;;;21.40;99.90;;;;;;5117905;27;20492;-82
2023/06/23 08:39:12;;;;;;;5.38;3.00;;;21.50;99.90;;;;;;5168258;27;20039;-83
2023/06/23 08:41:43;;;;;;;7.22;3.30;;;21.60;99.90;;;;;;5113734;28;20043;-83
2023/06/23 08:44:14;;;;;;;7.60;3.40;;;21.60;99.90;;;;;;5129661;28;20036;-83
2023/06/23 08:46:43;;;;;;;4.78;3.10;;;21.70;99.90;;;;;;5147693;28;20455;-83
2023/06/23 08:49:20;;;;;;;6.20;3.63;;;21.80;99.90;;;;;;5147824;28;20096;-83
2023/06/23 08:51:48;;;;;;;6.28;3.40;;;21.90;99.90;;;;;;5151173;27;20039;-83
2023/06/23 08:54:15;;;;;;;6.55;3.70;;;22.10;99.90;;;;;;5133984;27;20035;-83
2023/06/23 08:56:44;;;;;;;7.22;3.78;;;22.20;99.90;;;;;;5134102;27;20049;-83
2023/06/23 08:59:12;;;;;;;7.65;3.50;;;22.20;99.90;;;;;;5167668;27;20087;-84
2023/06/23 09:01:38;;;;;;;6.50;4.00;;;22.20;99.90;;;;;;5134444;27;20445;-83
2023/06/23 09:04:05;;;;;;;6.95;3.95;;;22.20;99.90;;;;;;5133856;27;20174;-84
2023/06/23 09:06:32;;;;;;;6.50;3.33;;;22.30;99.90;;;;;;5117481;27;20490;-84
2023/06/23 09:08:59;;;;;;;7.05;3.33;;;22.50;99.90;;;;;;5133827;27;20062;-84
2023/06/23 09:11:27;;;;;;;5.30;3.05;;;22.60;99.90;;;;;;5134246;27;20035;-84
2023/06/23 09:13:56;;;;;;;5.05;3.15;;;22.70;99.90;;;;;;5134360;27;20388;-84
2023/06/23 09:16:24;;;;;;;4.75;2.97;;;22.80;99.90;;;;;;5151063;27;20039;-84
2023/06/23 09:18:52;;;;;;;5.45;3.00;;;22.90;99.90;;;;;;5133536;27;20123;-84
2023/06/23 09:21:20;;;;;;;4.60;2.67;;;23.00;99.90;;;;;;5112799;28;20039;-84
2023/06/23 09:24:02;;;;;;;5.88;2.78;;;23.10;99.90;;;;;;5113691;28;20039;-84
2023/06/23 09:26:30;;;;;;;7.25;3.00;;;23.20;99.90;;;;;;5147026;28;20503;-85
2023/06/23 09:29:18;;;;;;;4.93;2.63;;;23.30;99.90;;;;;;5144557;28;20040;-84
2023/06/23 09:31:48;;;;;;;8.48;3.30;;;23.40;99.90;;;;;;5150334;27;20039;-84
2023/06/23 09:34:33;;;;;;;4.43;2.85;;;23.20;99.90;;;;;;5150496;27;20118;-85
2023/06/23 09:37:16;;;;;;;6.30;2.85;;;23.40;99.90;;;;;;5132800;28;20047;-85
2023/06/23 09:39:48;;;;;;;5.07;2.60;;;23.30;99.90;;;;;;5130118;28;20036;-85
2023/06/23 09:42:15;;;;;;;6.28;2.92;;;23.20;99.90;;;;;;5115963;28;20039;-85
2023/06/23 09:44:46;;;;;;;4.78;2.67;;;23.30;99.90;;;;;;5130030;28;20100;-85
2023/06/23 09:47:18;;;;;;;5.30;3.13;;;23.50;99.90;;;;;;5112911;28;20079;-84
2023/06/23 09:49:47;;;;;;;5.65;2.90;;;23.70;99.90;;;;;;5129898;28;20046;-85
2023/06/23 09:52:21;;;;;;;4.65;2.60;;;23.70;99.90;;;;;;5113448;28;20051;-85
2023/06/23 09:54:48;;;;;;;8.68;2.50;;;23.70;99.90;;;;;;5143386;28;20035;-84
2023/06/23 09:57:17;;;;;;;5.78;2.65;;;23.70;99.90;;;;;;5119765;28;20043;-85
2023/06/23 09:59:45;;;;;;;5.40;2.80;;;23.90;99.90;;;;;;5113368;28;20043;-85
2023/06/23 10:02:28;;;;;;;5.05;2.95;;;23.90;99.90;;;;;;5113090;28;20039;-85
2023/06/23 10:05:03;;;;;;;5.65;2.85;;;24.20;99.90;;;;;;5129931;28;20036;-86
2023/06/23 10:07:30;;;;;;;;;;;24.20;99.90;;;;;;5133416;28;20099;-85
2023/06/23 10:10:07;;;;;;;5.90;3.20;;;24.20;99.90;;;;;;5152909;27;19920;-85
2023/06/23 10:12:36;;;;;;;13.52;3.08;;;24.20;99.90;;;;;;5151054;27;20502;-84
2023/06/23 10:15:04;;;;;;;6.20;2.60;;;24.20;99.90;;;;;;5154385;27;20043;-87
2023/06/23 10:17:31;;;;;;;5.78;2.90;;;24.40;99.90;;;;;;5104639;28;20050;-84
2023/06/23 10:19:58;;;;;;;4.68;2.75;;;24.50;99.90;;;;;;5150597;28;20078;-85
2023/06/23 10:22:26;;;;;;;5.43;2.55;;;24.60;99.90;;;;;;5117002;28;20499;-84
2023/06/23 10:24:54;;;;;;;4.38;2.53;;;24.70;99.90;;;;;;5133743;28;20039;-86
2023/06/23 10:27:23;;;;;;;4.38;2.60;;;24.80;99.90;;;;;;5116807;28;20066;-85
2023/06/23 10:29:55;;;;;;;6.90;3.30;;;24.50;99.90;;;;;;5136851;27;20043;-85
2023/06/23 10:32:26;;;;;;;4.47;2.63;;;24.60;99.90;;;;;;5118456;28;20039;-84
2023/06/23 10:34:56;;;;;;;4.32;2.60;;;24.50;99.90;;;;;;5170043;27;20049;-84
2023/06/23 10:37:26;;;;;;;4.97;2.70;;;24.50;99.90;;;;;;5159515;27;20046;-85
2023/06/23 10:39:57;;;;;;;6.18;3.00;;;24.60;99.90;;;;;;5160211;27;20039;-84
2023/06/23 10:42:28;;;;;;;4.72;2.53;;;24.80;99.90;;;;;;5176297;27;20032;-84
2023/06/23 10:44:57;;;;;;;4.28;2.53;;;24.80;99.90;;;;;;5130450;28;20042;-82
2023/06/23 10:47:24;;;;;;;5.00;2.80;;;24.70;99.90;;;;;;5117034;28;20039;-86
2023/06/23 10:49:52;;;;;;;4.30;2.45;;;24.90;99.90;;;;;;5116486;28;20460;-86
2023/06/23 10:52:19;;;;;;;5.10;2.70;;;25.00;99.90;;;;;;5116254;28;20391;-85
2023/06/23 10:54:45;;;;;;;5.65;3.17;;;25.20;99.90;;;;;;5134906;27;20039;-85
2023/06/23 10:57:13;;;;;;;5.20;2.90;;;25.30;99.90;;;;;;5116246;28;20063;-85
2023/06/23 10:59:43;;;;;;;5.70;2.78;;;25.20;99.90;;;;;;5125020;28;20449;-85
2023/06/23 11:02:16;;;;;;;5.20;3.13;;;24.90;99.90;;;;;;5133547;28;20039;-85
2023/06/23 11:04:55;;;;;;;7.20;3.20;;;24.90;99.90;;;;;;5150234;28;20042;-85
2023/06/23 11:07:23;;;;;;;9.38;2.80;;;24.80;99.90;;;;;;5146601;27;20547;-85
2023/06/23 11:09:58;;;;;;;4.40;2.83;;;24.70;99.90;;;;;;5153692;27;20039;-85
2023/06/23 11:12:39;;;;;;;5.00;3.03;;;24.70;99.90;;;;;;5154446;27;20069;-85
2023/06/23 11:15:23;;;;;;;4.65;2.63;;;24.80;99.90;;;;;;5147786;27;20498;-85
2023/06/23 11:18:01;;;;;;;4.35;2.30;;;25.00;99.90;;;;;;5137525;28;20043;-85
2023/06/23 11:20:38;;;;;;;5.63;3.00;;;25.20;99.90;;;;;;5146302;28;20071;-85
2023/06/23 11:23:12;;;;;;;4.93;2.65;;;25.20;99.90;;;;;;5135255;27;20055;-85
2023/06/23 11:25:47;;;;;;;5.38;2.65;;;25.30;99.90;;;;;;5168506;27;20031;-85
2023/06/23 11:28:34;;;;;;;5.47;2.65;;;25.30;99.90;;;;;;5173687;27;20091;-86
2023/06/23 11:31:03;;;;;;;4.78;2.60;;;25.60;99.90;;;;;;5132161;28;20046;-85
2023/06/23 11:33:38;;;;;;;5.10;2.80;;;25.60;99.90;;;;;;5115619;28;20044;-86
2023/06/23 11:36:17;;;;;;;4.60;2.80;;;25.80;99.90;;;;;;5136317;27;20035;-85
2023/06/23 11:38:44;;;;;;;5.50;2.65;;;25.60;99.90;;;;;;5145886;27;20104;-86
2023/06/23 11:41:23;;;;;;;7.25;3.40;;;25.50;99.90;;;;;;5136261;27;20088;-85
2023/06/23 11:43:49;;;;;;;5.30;2.80;;;25.50;99.90;;;;;;5151245;27;20452;-86
2023/06/23 11:46:16;;;;;;;5.63;2.90;;;25.50;99.90;;;;;;5099223;28;20035;-85
2023/06/23 11:48:46;;;;;;;6.15;3.20;;;25.70;99.90;;;;;;5134198;27;20542;-86
2023/06/23 11:51:13;;;;;;;5.72;2.80;;;25.70;99.90;;;;;;5132490;28;20071;-86
2023/06/23 11:53:40;;;;;;;6.78;3.03;;;25.60;99.90;;;;;;5132517;28;20488;-86
2023/06/23 11:56:09;;;;;;;6.50;2.90;;;25.40;99.90;;;;;;5118855;27;20039;-86
2023/06/23 11:58:36;;;;;;;7.97;2.90;;;25.60;99.90;;;;;;5149201;27;20043;-85
2023/06/23 12:01:04;;;;;;;6.43;3.35;;;25.80;99.90;;;;;;5136231;27;20403;-86
2023/06/23 12:03:32;;;;;;;6.93;3.50;;;25.80;99.90;;;;;;5135070;28;20039;-86
2023/06/23 12:05:59;;;;;;;6.60;3.60;;;25.60;99.90;;;;;;5115147;28;20039;-86
2023/06/23 12:08:27;;;;;;;10.85;3.67;;;25.40;99.90;;;;;;5119743;27;20487;-85
2023/06/23 12:10:55;;;;;;;6.47;3.53;;;25.20;99.90;;;;;;5169932;27;20126;-86
2023/06/23 12:13:22;;;;;;;6.85;3.78;;;25.30;99.90;;;;;;5131591;28;20035;-87
2023/06/23 12:15:48;;;;;;;4.97;3.30;;;25.40;99.90;;;;;;5114820;28;20046;-87
2023/06/23 12:18:15;;;;;;;5.88;3.42;;;25.60;99.90;;;;;;5114644;28;20543;-87
2023/06/23 12:20:45;;;;;;;6.88;3.55;;;25.70;99.90;;;;;;5115311;28;20039;-87
2023/06/23 12:23:11;;;;;;;6.63;3.30;;;25.60;99.90;;;;;;5139805;27;20035;-87
2023/06/23 12:25:47;;;;;;;5.22;3.20;;;25.70;99.90;;;;;;5135451;27;20035;-87
2023/06/23 12:28:15;;;;;;;6.60;3.33;;;25.60;99.90;;;;;;5152051;27;20482;-86
2023/06/23 12:30:43;;;;;;;6.05;3.10;;;25.80;99.90;;;;;;5151492;27;20516;-85
2023/06/23 12:33:19;;;;;;;4.68;3.08;;;25.90;99.90;;;;;;5134604;27;20039;-85
2023/06/23 12:36:07;;;;;;;4.50;2.90;;;25.80;99.90;;;;;;5152131;27;20042;-86
2023/06/23 12:38:35;;;;;;;4.65;2.90;;;25.70;99.90;;;;;;5151776;27;20566;-88
2023/06/23 12:41:26;;;;;;;5.45;3.10;;;25.70;99.90;;;;;;5141127;27;20456;-89
2023/06/23 12:43:54;;;;;;;5.85;2.95;;;25.70;99.90;;;;;;5145021;28;20031;-86
2023/06/23 12:46:23;;;;;;;5.35;3.20;;;25.70;99.90;;;;;;5131303;28;20039;-87
2023/06/23 12:48:50;;;;;;;6.15;2.85;;;25.50;99.90;;;;;;5114668;28;20237;-87
2023/06/23 12:51:18;;;;;;;6.07;3.10;;;25.50;99.90;;;;;;5131346;28;20039;-87
2023/06/23 12:53:44;;;;;;;7.95;2.83;;;25.60;99.90;;;;;;5132626;27;20039;-87
2023/06/23 12:56:11;;;;;;;5.28;2.90;;;25.60;99.90;;;;;;5118280;27;20066;-88
2023/06/23 12:58:38;;;;;;;4.60;2.83;;;25.70;99.90;;;;;;5117850;27;20040;-87